Time;durP1;ratioP1;P1;durP2;ratioP2;P2;SDS_P1;SDS_P2;PMS_P1;PMS_P2;Temp;Humidity;BMP_temperature;BMP_pressure;BME280_temperature;BME280_humidity;BME280_pressure;Samples;Min_cycle;Max_cycle;Signal;HPM_P1;HPM_P2
2023/12/27 00:02:10;;;;;;;19.63;11.07;;;;;;;10.68;81.14;101891.41;4953956;28;20056;-83
2023/12/27 00:04:39;;;;;;;22.27;10.82;;;;;;;10.71;80.81;101905.44;4971043;28;20050;-83
2023/12/27 00:07:06;;;;;;;19.75;10.40;;;;;;;10.61;80.80;101891.94;4963729;28;20132;-83
2023/12/27 00:09:33;;;;;;;20.00;10.25;;;;;;;10.83;80.41;101920.53;4979076;28;20060;-82
2023/12/27 00:12:00;;;;;;;32.72;12.45;;;;;;;10.91;80.79;101916.34;4958697;28;20446;-82
2023/12/27 00:14:31;;;;;;;32.38;11.55;;;;;;;10.79;80.34;101895.97;4969886;28;20053;-82
2023/12/27 00:16:57;;;;;;;26.27;9.93;;;;;;;10.61;80.11;101876.00;4977441;28;20057;-82
2023/12/27 00:19:26;;;;;;;18.05;11.02;;;;;;;10.82;80.47;101918.81;4988318;28;20092;-85
2023/12/27 00:21:56;;;;;;;25.95;11.77;;;;;;;10.90;79.76;101927.94;4988409;28;20324;-83
2023/12/27 00:24:23;;;;;;;23.05;12.57;;;;;;;10.53;79.01;101867.69;4973480;28;20037;-81
2023/12/27 00:26:50;;;;;;;26.77;14.20;;;;;;;10.62;78.57;101890.97;4970165;28;20049;-82
2023/12/27 00:29:16;;;;;;;35.05;14.27;;;;;;;10.72;78.81;101926.56;4975988;28;20413;-81
2023/12/27 00:31:43;;;;;;;25.45;15.25;;;;;;;10.47;78.77;101892.88;4970789;28;20045;-82
2023/12/27 00:34:10;;;;;;;28.77;14.52;;;;;;;10.68;78.75;101935.72;4959788;28;20046;-82
2023/12/27 00:36:38;;;;;;;27.33;13.75;;;;;;;10.14;78.55;101864.09;4950720;28;20053;-82
2023/12/27 00:39:11;;;;;;;36.60;15.70;;;;;;;10.66;78.68;101953.53;4946137;28;20081;-83
2023/12/27 00:41:56;;;;;;;57.25;16.08;;;;;;;10.71;78.36;101953.25;4934735;28;20133;-82
2023/12/27 00:44:31;;;;;;;35.70;15.48;;;;;;;10.62;77.92;101949.38;4981322;28;20148;-83
2023/12/27 00:46:59;;;;;;;27.85;14.70;;;;;;;10.04;77.52;101863.88;4979269;28;20045;-82
2023/12/27 00:49:28;;;;;;;38.60;16.75;;;;;;;10.36;77.91;101933.38;4987591;28;20128;-83
2023/12/27 00:52:02;;;;;;;28.95;16.70;;;;;;;10.46;77.61;101966.38;4971941;28;20433;-83
2023/12/27 00:54:28;;;;;;;26.48;15.70;;;;;;;10.16;77.87;101904.66;4971332;28;20057;-81
2023/12/27 00:56:55;;;;;;;27.58;15.60;;;;;;;10.32;77.26;101947.00;4972480;28;20596;-83
2023/12/27 00:59:22;;;;;;;24.27;16.00;;;;;;;10.44;78.45;101984.19;4968083;28;20535;-82
2023/12/27 01:01:56;;;;;;;24.33;15.60;;;;;;;10.28;78.23;101962.25;4976466;28;20046;-82
2023/12/27 01:04:23;;;;;;;25.15;16.52;;;;;;;10.26;78.16;101958.81;4972592;28;20610;-82
2023/12/27 01:06:49;;;;;;;28.80;16.42;;;;;;;10.41;78.05;101989.72;4953547;28;20552;-82
2023/12/27 01:09:16;;;;;;;26.23;15.25;;;;;;;10.20;78.15;101959.25;4959158;28;20053;-82
2023/12/27 01:11:43;;;;;;;26.35;15.77;;;;;;;10.34;78.19;102003.47;4977624;28;20688;-82
2023/12/27 01:14:16;;;;;;;28.55;15.45;;;;;;;10.11;78.08;101963.34;4960581;28;20383;-82
2023/12/27 01:16:43;;;;;;;25.70;16.17;;;;;;;9.91;78.40;101930.16;4960489;28;20046;-81
2023/12/27 01:19:11;;;;;;;22.98;14.63;;;;;;;10.38;78.00;102005.81;4960100;28;20133;-81
2023/12/27 01:21:38;;;;;;;25.33;14.85;;;;;;;10.38;77.86;102013.78;4972176;28;20050;-83
2023/12/27 01:24:05;;;;;;;26.20;15.00;;;;;;;10.28;77.90;101994.09;4960160;28;20462;-82
2023/12/27 01:26:35;;;;;;;26.33;14.95;;;;;;;9.86;78.36;101923.44;4956728;28;20081;-82
2023/12/27 01:29:01;;;;;;;25.38;14.90;;;;;;;10.23;78.51;101988.22;4955577;28;20050;-83
2023/12/27 01:31:28;;;;;;;25.52;14.40;;;;;;;10.29;78.50;101994.94;4959017;28;20050;-81
2023/12/27 01:33:55;;;;;;;29.27;14.25;;;;;;;10.22;78.57;101989.19;4959923;28;20042;-82
2023/12/27 01:36:37;;;;;;;16.75;13.75;;;;;;;10.14;79.06;101981.69;4960285;28;20049;-83
2023/12/27 01:39:11;;;;;;;26.38;15.00;;;;;;;10.11;78.77;101989.03;4974280;28;20163;-82
2023/12/27 01:41:47;;;;;;;28.88;14.18;;;;;;;10.17;78.34;101985.97;4934264;28;20466;-82
2023/12/27 01:44:16;;;;;;;19.10;13.13;;;;;;;10.27;78.95;102003.00;4952654;28;20050;-81
2023/12/27 01:46:43;;;;;;;20.02;13.10;;;;;;;10.20;78.94;102004.34;4951921;28;20053;-83
2023/12/27 01:49:09;;;;;;;21.58;13.85;;;;;;;10.25;79.09;102012.88;4971393;28;20108;-82
2023/12/27 01:51:40;;;;;;;24.42;14.13;;;;;;;10.34;78.78;102025.56;4961350;28;20049;-81
2023/12/27 01:54:07;;;;;;;21.08;14.00;;;;;;;10.38;78.25;102027.06;4961424;28;20672;-81
2023/12/27 01:56:34;;;;;;;21.60;14.52;;;;;;;10.18;78.16;101996.47;4957229;28;20072;-81
2023/12/27 01:59:04;;;;;;;22.60;13.27;;;;;;;10.32;78.72;102006.25;4965752;28;20485;-81
2023/12/27 02:01:37;;;;;;;27.73;15.70;;;;;;;10.46;78.00;102030.06;4955998;28;20190;-84
2023/12/27 02:04:07;;;;;;;27.27;17.20;;;;;;;10.31;77.95;101999.22;4952172;28;20112;-82
2023/12/27 02:06:37;;;;;;;23.60;14.75;;;;;;;10.26;77.95;101985.34;4935845;28;20110;-82
2023/12/27 02:09:04;;;;;;;26.02;15.15;;;;;;;10.50;77.72;102021.91;4919446;28;20159;-82
2023/12/27 02:11:31;;;;;;;26.85;15.15;;;;;;;10.37;77.58;102008.59;4949184;28;20043;-82
2023/12/27 02:13:58;;;;;;;26.33;15.77;;;;;;;10.40;77.73;102021.66;4970154;28;20494;-82
2023/12/27 02:16:25;;;;;;;21.27;15.23;;;;;;;10.13;78.07;101995.09;4972172;28;20745;-81
2023/12/27 02:18:53;;;;;;;20.23;14.55;;;;;;;10.13;78.69;101997.75;4969087;28;20430;-82
2023/12/27 02:21:20;;;;;;;23.75;14.90;;;;;;;10.34;78.77;102025.56;4968480;28;20042;-83
2023/12/27 02:23:51;;;;;;;23.23;14.90;;;;;;;10.36;77.58;102018.34;4966014;28;20056;-83
2023/12/27 02:26:18;;;;;;;22.13;14.27;;;;;;;10.08;78.07;101970.66;4958160;28;20065;-82
2023/12/27 02:28:44;;;;;;;24.80;14.48;;;;;;;10.25;78.67;102002.25;4968711;28;20054;-82
2023/12/27 02:31:11;;;;;;;22.10;13.60;;;;;;;10.32;78.78;102022.16;4983013;28;20065;-81
2023/12/27 02:33:43;;;;;;;22.60;14.13;;;;;;;10.28;78.85;102015.34;4967109;28;20054;-82
2023/12/27 02:36:11;;;;;;;20.50;14.43;;;;;;;10.21;79.00;102008.69;4982397;28;20042;-82
2023/12/27 02:38:39;;;;;;;21.20;14.88;;;;;;;10.30;78.91;102023.22;4965176;28;20116;-83
2023/12/27 02:41:09;;;;;;;24.42;15.35;;;;;;;10.26;79.08;102017.22;4965451;28;20057;-82
2023/12/27 02:43:36;;;;;;;22.10;13.93;;;;;;;10.35;79.07;102013.16;4965328;28;20076;-82
2023/12/27 02:46:07;;;;;;;22.50;14.13;;;;;;;10.36;78.94;102015.69;4965523;28;20399;-83
2023/12/27 02:48:33;;;;;;;22.05;14.60;;;;;;;10.16;79.20;101976.31;4958844;28;20416;-83
2023/12/27 02:51:00;;;;;;;22.27;14.52;;;;;;;9.91;79.44;101932.81;4967240;28;20513;-83
2023/12/27 02:53:27;;;;;;;22.30;13.63;;;;;;;10.24;79.82;101981.94;4968812;28;20129;-82
2023/12/27 02:55:54;;;;;;;21.88;13.50;;;;;;;10.20;79.84;101985.78;4967298;28;20049;-82
2023/12/27 02:58:20;;;;;;;26.00;14.50;;;;;;;9.99;79.66;101946.41;4963820;28;20053;-81
2023/12/27 03:00:50;;;;;;;20.95;13.10;;;;;;;9.84;80.42;101931.50;4963074;28;20100;-82
2023/12/27 03:03:17;;;;;;;20.17;13.65;;;;;;;10.13;80.29;101990.63;4995049;28;20050;-81
2023/12/27 03:05:47;;;;;;;20.23;13.05;;;;;;;10.10;80.51;101989.94;5003551;28;20064;-83
2023/12/27 03:08:13;;;;;;;20.95;13.98;;;;;;;9.74;80.14;101927.75;4989261;28;20512;-84
2023/12/27 03:10:40;;;;;;;18.70;14.18;;;;;;;9.96;80.03;101967.84;5002689;28;20049;-84
2023/12/27 03:13:07;;;;;;;22.42;12.43;;;;;;;10.07;80.43;101985.69;4982659;28;20080;-83
2023/12/27 03:15:34;;;;;;;20.23;12.98;;;;;;;10.05;80.28;101977.84;5006088;28;20052;-82
2023/12/27 03:18:04;;;;;;;22.95;12.20;;;;;;;10.05;79.99;101966.41;4998527;28;20041;-81
2023/12/27 03:20:32;;;;;;;20.17;12.63;;;;;;;10.11;79.28;101959.84;4969512;28;20065;-82
2023/12/27 03:23:01;;;;;;;16.88;10.43;;;;;;;9.94;78.95;101934.41;4999952;28;20050;-80
2023/12/27 03:25:27;;;;;;;18.35;11.07;;;;;;;10.18;79.43;101979.72;4981991;28;20045;-81
2023/12/27 03:27:54;;;;;;;15.35;11.65;;;;;;;9.88;79.63;101940.97;4969033;28;20057;-83
2023/12/27 03:30:26;;;;;;;19.05;11.10;;;;;;;10.10;80.01;101979.34;4982622;28;20072;-82
2023/12/27 03:32:56;;;;;;;21.15;11.15;;;;;;;10.06;79.96;101981.34;5000067;28;20368;-82
2023/12/27 03:35:23;;;;;;;18.75;10.65;;;;;;;10.07;80.23;101980.41;4983635;28;20061;-82
2023/12/27 03:37:50;;;;;;;15.85;9.40;;;;;;;9.96;80.28;101981.09;4973994;28;20317;-84
2023/12/27 03:40:17;;;;;;;13.50;9.90;;;;;;;9.85;80.72;101975.63;4989335;28;20045;-81
2023/12/27 03:42:44;;;;;;;14.57;10.02;;;;;;;9.92;79.88;101990.19;4985223;28;20049;-80
2023/12/27 03:45:11;;;;;;;13.98;10.30;;;;;;;10.00;80.31;102006.50;4976908;28;20136;-82
2023/12/27 03:47:38;;;;;;;21.45;11.32;;;;;;;9.48;80.13;101922.28;4977477;28;20045;-81
2023/12/27 03:50:05;;;;;;;16.83;10.68;;;;;;;9.78;80.84;101974.31;4972432;28;20497;-81
2023/12/27 03:52:35;;;;;;;21.17;11.27;;;;;;;9.99;80.71;102010.06;4964636;28;20347;-82
2023/12/27 03:55:02;;;;;;;16.80;11.07;;;;;;;10.01;79.77;102021.44;4975590;28;20563;-82
2023/12/27 03:57:29;;;;;;;26.63;11.88;;;;;;;10.03;79.66;102027.50;4982257;28;20138;-81
2023/12/27 03:59:57;;;;;;;17.17;11.77;;;;;;;9.73;79.55;101971.09;4990159;28;20379;-82
2023/12/27 04:02:24;;;;;;;20.27;11.85;;;;;;;10.08;79.07;102031.69;4976794;28;20317;-83
2023/12/27 04:04:51;;;;;;;28.23;12.43;;;;;;;9.99;80.34;102018.03;4979127;28;20142;-83
2023/12/27 04:07:18;;;;;;;25.70;10.93;;;;;;;9.94;79.57;102006.88;4976117;28;20136;-81
2023/12/27 04:09:46;;;;;;;14.18;10.35;;;;;;;9.85;79.03;101996.84;4966943;28;20117;-81
2023/12/27 04:12:13;;;;;;;14.45;9.65;;;;;;;10.00;79.12;102017.09;4971427;28;20050;-81
2023/12/27 04:14:43;;;;;;;12.68;7.43;;;;;;;10.08;78.33;102021.06;4982883;28;20056;-80
2023/12/27 04:17:10;;;;;;;17.40;7.15;;;;;;;9.90;75.78;101984.13;4988086;28;20045;-82
2023/12/27 04:19:36;;;;;;;11.48;7.05;;;;;;;10.13;74.98;102021.63;4977184;28;20060;-79
2023/12/27 04:22:03;;;;;;;9.23;6.63;;;;;;;9.97;74.95;101990.75;4976916;28;20085;-81
2023/12/27 04:24:30;;;;;;;9.52;6.65;;;;;;;9.62;74.19;101932.03;4995319;28;20052;-81
2023/12/27 04:26:59;;;;;;;9.60;6.40;;;;;;;10.10;74.26;102005.88;4972355;28;20050;-83
2023/12/27 04:29:26;;;;;;;11.30;6.20;;;;;;;9.63;73.68;101931.06;4980920;28;20049;-81
2023/12/27 04:31:53;;;;;;;10.48;6.32;;;;;;;9.96;73.67;101986.41;4975589;28;20317;-80
2023/12/27 04:34:19;;;;;;;11.88;6.97;;;;;;;10.23;72.77;102022.72;4952884;28;20139;-81
2023/12/27 04:36:46;;;;;;;10.65;6.20;;;;;;;10.11;72.81;102015.56;4967201;28;20565;-79
2023/12/27 04:39:13;;;;;;;11.77;7.07;;;;;;;10.19;73.16;102026.53;4955736;28;20397;-81
2023/12/27 04:41:48;;;;;;;7.75;6.10;;;;;;;9.98;73.21;101997.78;4963753;28;20131;-81
2023/12/27 04:44:20;;;;;;;7.93;5.80;;;;;;;9.89;74.33;101995.72;4978512;28;20052;-81
2023/12/27 04:46:46;;;;;;;11.05;5.68;;;;;;;10.17;73.32;102037.25;4973583;28;20053;-81
2023/12/27 04:49:13;;;;;;;8.85;6.13;;;;;;;10.18;73.20;102040.75;4973709;28;20432;-81
2023/12/27 04:51:40;;;;;;;7.65;5.63;;;;;;;10.16;73.20;102050.59;4956058;28;20278;-81
2023/12/27 04:54:16;;;;;;;10.65;5.57;;;;;;;10.02;74.08;102036.44;4954210;28;20053;-80
2023/12/27 04:56:49;;;;;;;11.40;6.93;;;;;;;10.15;73.48;102051.56;4960994;28;20061;-81
2023/12/27 04:59:27;;;;;;;8.63;6.18;;;;;;;10.09;74.80;102044.00;4968358;28;20123;-81
2023/12/27 05:02:04;;;;;;;9.50;6.20;;;;;;;10.03;73.94;102038.13;4949308;28;20266;-80
2023/12/27 05:04:31;;;;;;;7.63;6.00;;;;;;;9.78;74.08;101995.53;4939410;28;20052;-80
2023/12/27 05:07:01;;;;;;;8.98;5.63;;;;;;;10.21;73.11;102059.13;4965200;28;20056;-82
2023/12/27 05:09:27;;;;;;;8.60;5.97;;;;;;;9.89;72.94;102002.81;4934989;28;20405;-79
2023/12/27 05:11:55;;;;;;;8.25;6.32;;;;;;;10.24;73.75;102058.91;4940922;28;20490;-82
2023/12/27 05:14:24;;;;;;;11.93;6.38;;;;;;;10.19;73.83;102058.38;4967368;28;20297;-81
2023/12/27 05:16:54;;;;;;;9.95;6.15;;;;;;;10.11;73.90;102040.28;4955238;28;20061;-79
2023/12/27 05:19:22;;;;;;;8.75;5.93;;;;;;;10.21;74.00;102061.78;4953950;28;20512;-80
2023/12/27 05:21:50;;;;;;;11.23;6.05;;;;;;;10.15;74.32;102055.06;4934749;28;20065;-81
2023/12/27 05:24:17;;;;;;;13.30;6.18;;;;;;;10.06;75.52;102048.53;4945637;28;20740;-79
2023/12/27 05:26:44;;;;;;;9.05;6.00;;;;;;;10.01;75.15;102045.31;4959881;28;20054;-81
2023/12/27 05:29:10;;;;;;;9.95;6.30;;;;;;;10.21;75.06;102086.50;4964312;28;20501;-80
2023/12/27 05:31:37;;;;;;;10.90;7.13;;;;;;;10.06;75.70;102060.97;4959528;28;20137;-80
2023/12/27 05:34:04;;;;;;;8.98;6.55;;;;;;;10.15;75.61;102078.94;4953471;28;20141;-81
2023/12/27 05:36:31;;;;;;;10.23;6.50;;;;;;;9.87;74.99;102025.94;4982205;28;20065;-81
2023/12/27 05:38:58;;;;;;;12.75;6.63;;;;;;;10.13;74.29;102061.44;4950538;28;20058;-80
2023/12/27 05:41:25;;;;;;;11.18;6.47;;;;;;;10.13;75.67;102066.72;4930342;28;20249;-81
2023/12/27 05:43:53;;;;;;;12.80;6.63;;;;;;;10.24;75.49;102089.00;4947125;28;20346;-80
2023/12/27 05:46:21;;;;;;;10.27;6.53;;;;;;;10.24;75.10;102098.72;4929500;28;20046;-82
2023/12/27 05:48:48;;;;;;;10.13;6.15;;;;;;;10.23;75.00;102099.69;4937487;28;20137;-80
2023/12/27 05:51:15;;;;;;;10.23;6.68;;;;;;;10.19;74.92;102091.06;4937705;28;20073;-79
2023/12/27 05:53:42;;;;;;;9.85;5.60;;;;;;;9.87;74.98;102041.84;4956257;28;20116;-81
2023/12/27 05:56:09;;;;;;;9.13;6.20;;;;;;;10.12;74.72;102081.81;4937230;28;20413;-83
2023/12/27 05:58:36;;;;;;;13.20;6.20;;;;;;;10.21;73.91;102097.13;4934103;28;20072;-83
2023/12/27 06:01:03;;;;;;;7.10;5.15;;;;;;;10.21;74.22;102093.63;4940442;28;20057;-81
2023/12/27 06:03:30;;;;;;;8.05;5.30;;;;;;;10.04;74.17;102070.81;4940518;28;20525;-81
2023/12/27 06:05:57;;;;;;;8.55;5.78;;;;;;;9.72;73.88;102028.59;4955394;28;20458;-80
2023/12/27 06:08:24;;;;;;;11.00;6.75;;;;;;;10.25;73.81;102117.22;4957165;28;20259;-82
2023/12/27 06:10:51;;;;;;;11.30;6.30;;;;;;;10.24;73.63;102125.28;4959830;28;20057;-82
2023/12/27 06:13:18;;;;;;;10.80;7.05;;;;;;;10.21;73.57;102120.16;4962155;28;20334;-82
2023/12/27 06:15:48;;;;;;;9.18;5.97;;;;;;;10.00;73.71;102094.03;4954404;28;20505;-82
2023/12/27 06:18:16;;;;;;;6.82;5.47;;;;;;;10.17;73.98;102122.19;4978696;28;20492;-83
2023/12/27 06:20:43;;;;;;;6.63;5.82;;;;;;;10.23;74.21;102129.72;4955336;28;20383;-82
2023/12/27 06:23:10;;;;;;;8.88;6.07;;;;;;;10.26;73.62;102139.31;4968209;28;20065;-82
2023/12/27 06:25:36;;;;;;;9.38;5.82;;;;;;;10.20;73.81;102127.28;4952583;28;20049;-83
2023/12/27 06:28:05;;;;;;;8.43;5.80;;;;;;;10.17;73.08;102118.66;4951862;28;20092;-82
2023/12/27 06:30:32;;;;;;;11.50;6.50;;;;;;;10.43;72.50;102156.84;4954699;28;20135;-80
2023/12/27 06:32:59;;;;;;;12.15;5.40;;;;;;;10.40;73.13;102160.56;4961422;28;20046;-81
2023/12/27 06:35:29;;;;;;;10.30;6.38;;;;;;;10.12;73.69;102115.44;4962850;28;20041;-81
2023/12/27 06:37:56;;;;;;;14.07;6.32;;;;;;;10.37;73.99;102168.72;4961302;28;20056;-80
2023/12/27 06:40:23;;;;;;;8.02;5.72;;;;;;;10.28;74.94;102158.69;4977418;28;20325;-81
2023/12/27 06:42:50;;;;;;;9.70;5.50;;;;;;;10.27;74.15;102164.91;4968125;28;20132;-80
2023/12/27 06:45:16;;;;;;;11.63;6.57;;;;;;;10.25;75.14;102172.13;4957227;28;20042;-83
2023/12/27 06:47:43;;;;;;;8.60;6.00;;;;;;;10.31;74.68;102181.53;4954793;28;20148;-82
2023/12/27 06:50:10;;;;;;;13.65;9.40;;;;;;;10.24;74.84;102173.94;4967942;28;20108;-80
2023/12/27 06:52:37;;;;;;;14.07;8.00;;;;;;;10.15;74.83;102163.03;4958288;28;20113;-80
2023/12/27 06:55:04;;;;;;;12.85;8.27;;;;;;;10.22;75.03;102178.47;4963951;28;20108;-80
2023/12/27 06:57:31;;;;;;;9.93;6.30;;;;;;;10.28;75.83;102187.88;4960674;28;20078;-80
2023/12/27 06:59:58;;;;;;;15.10;7.70;;;;;;;10.24;75.30;102175.69;4966430;28;20529;-80
2023/12/27 07:02:28;;;;;;;9.05;6.47;;;;;;;10.24;74.97;102173.03;4962939;28;20362;-81
2023/12/27 07:04:55;;;;;;;7.93;6.40;;;;;;;10.28;75.28;102185.22;4997028;28;20185;-80
2023/12/27 07:07:28;;;;;;;11.82;6.30;;;;;;;10.24;75.46;102181.00;4972736;28;20049;-79
2023/12/27 07:09:55;;;;;;;8.20;6.28;;;;;;;10.27;75.31;102184.34;4970345;28;20100;-80
2023/12/27 07:12:25;;;;;;;9.82;6.60;;;;;;;10.33;75.05;102199.06;4967758;28;20594;-79
2023/12/27 07:14:53;;;;;;;8.93;5.88;;;;;;;10.36;75.35;102193.53;4964136;28;20303;-81
2023/12/27 07:17:27;;;;;;;9.30;6.03;;;;;;;9.58;75.12;102079.81;4982939;28;20131;-82
2023/12/27 07:19:55;;;;;;;8.23;6.13;;;;;;;10.11;74.72;102161.50;4931328;28;20054;-80
2023/12/27 07:22:23;;;;;;;11.05;5.97;;;;;;;10.39;74.66;102214.63;4949377;28;20432;-80
2023/12/27 07:24:50;;;;;;;13.75;6.72;;;;;;;10.39;74.77;102219.94;4976917;28;20486;-80
2023/12/27 07:27:17;;;;;;;11.32;6.60;;;;;;;10.40;74.60;102215.47;4963458;28;20060;-80
2023/12/27 07:29:43;;;;;;;10.02;6.50;;;;;;;10.34;74.23;102206.09;4962883;28;20128;-80
2023/12/27 07:32:10;;;;;;;12.00;6.22;;;;;;;10.38;74.10;102217.34;4956435;28;20155;-81
2023/12/27 07:34:38;;;;;;;9.68;6.10;;;;;;;10.25;75.48;102193.34;4956409;28;20181;-78
2023/12/27 07:37:05;;;;;;;16.35;6.88;;;;;;;10.36;74.29;102212.13;4971684;28;20050;-80
2023/12/27 07:39:35;;;;;;;16.23;7.50;;;;;;;10.43;74.57;102226.72;4970505;28;20061;-79
2023/12/27 07:42:02;;;;;;;14.43;6.50;;;;;;;10.42;74.89;102225.03;4974373;28;20127;-80
2023/12/27 07:44:29;;;;;;;10.57;7.00;;;;;;;10.47;74.00;102238.03;4957922;28;20076;-80
2023/12/27 07:46:56;;;;;;;9.27;7.03;;;;;;;10.43;74.93;102242.66;4948560;28;20057;-79
2023/12/27 07:49:24;;;;;;;12.73;6.30;;;;;;;10.36;74.61;102225.41;4961815;28;20054;-82
2023/12/27 07:51:51;;;;;;;18.05;6.60;;;;;;;10.05;74.63;102173.38;4956048;28;20068;-80
2023/12/27 07:54:18;;;;;;;14.05;6.57;;;;;;;10.55;73.43;102251.66;4961766;28;20097;-80
2023/12/27 07:56:45;;;;;;;9.45;6.30;;;;;;;10.56;72.76;102248.06;4959356;28;20730;-80
2023/12/27 07:59:12;;;;;;;10.48;6.40;;;;;;;10.57;71.93;102248.94;4955808;28;20396;-80
2023/12/27 08:01:39;;;;;;;11.60;6.07;;;;;;;10.47;71.12;102233.56;4956039;28;20316;-82
2023/12/27 08:04:07;;;;;;;9.82;6.07;;;;;;;10.67;71.78;102269.47;4965992;28;20258;-81
2023/12/27 08:06:34;;;;;;;9.02;6.32;;;;;;;10.68;71.51;102279.19;4912553;28;20456;-78
2023/12/27 08:09:03;;;;;;;8.43;5.72;;;;;;;10.53;71.17;102258.03;4928378;28;20100;-82
2023/12/27 08:11:34;;;;;;;6.45;5.05;;;;;;;10.37;71.13;102227.13;4958566;28;20278;-81
2023/12/27 08:14:01;;;;;;;7.78;5.30;;;;;;;10.77;71.27;102285.69;4984373;28;20081;-80
2023/12/27 08:16:28;;;;;;;8.38;5.57;;;;;;;10.57;70.50;102248.94;4995443;28;20141;-79
2023/12/27 08:18:55;;;;;;;14.50;5.82;;;;;;;10.72;70.39;102273.66;4983182;28;20123;-80
2023/12/27 08:21:22;;;;;;;15.02;5.88;;;;;;;10.62;70.63;102262.75;4963766;28;20066;-82
2023/12/27 08:23:49;;;;;;;8.30;5.68;;;;;;;10.71;70.16;102294.06;4972798;28;20529;-82
2023/12/27 08:26:16;;;;;;;11.23;6.07;;;;;;;10.75;70.76;102303.53;4932890;28;20050;-82
2023/12/27 08:28:43;;;;;;;8.55;5.25;;;;;;;10.77;70.83;102303.44;4959490;28;20057;-81
2023/12/27 08:31:10;;;;;;;15.60;6.75;;;;;;;10.77;70.41;102295.47;4968724;28;20409;-83
2023/12/27 08:33:37;;;;;;;13.77;6.05;;;;;;;10.81;70.83;102320.91;4957653;28;20413;-81
2023/12/27 08:36:13;;;;;;;11.32;6.45;;;;;;;10.81;70.37;102304.97;4960171;28;20069;-82
2023/12/27 08:38:41;;;;;;;10.15;6.00;;;;;;;10.86;70.40;102322.31;4956550;28;20077;-80
2023/12/27 08:41:08;;;;;;;12.60;6.18;;;;;;;10.86;69.94;102324.97;4931514;28;20050;-82
2023/12/27 08:43:37;;;;;;;10.45;6.65;;;;;;;10.57;70.32;102291.41;4994479;28;20064;-82
2023/12/27 08:46:08;;;;;;;11.63;6.13;;;;;;;10.73;69.88;102297.50;4975742;28;20056;-81
2023/12/27 08:48:35;;;;;;;20.50;7.15;;;;;;;10.94;69.68;102342.25;4993885;28;20089;-80
2023/12/27 08:51:03;;;;;;;13.30;6.78;;;;;;;10.67;70.03;102282.75;4961538;28;20215;-81
2023/12/27 08:53:30;;;;;;;10.07;6.03;;;;;;;10.80;70.28;102303.25;4962531;28;20221;-80
2023/12/27 08:55:57;;;;;;;11.77;5.68;;;;;;;10.76;69.46;102307.91;4951049;28;20046;-78
2023/12/27 08:58:25;;;;;;;8.73;5.70;;;;;;;10.97;69.41;102342.03;4958719;28;20319;-81
2023/12/27 09:00:54;;;;;;;9.88;5.32;;;;;;;10.87;69.96;102333.78;4976055;28;20078;-81
2023/12/27 09:03:22;;;;;;;8.05;5.88;;;;;;;10.66;70.00;102304.13;4985720;28;20049;-79
2023/12/27 09:05:49;;;;;;;8.30;5.32;;;;;;;10.68;69.83;102312.84;4966677;28;20329;-79
2023/12/27 09:08:16;;;;;;;9.65;5.30;;;;;;;10.92;69.62;102352.97;4958345;28;20104;-82
2023/12/27 09:10:43;;;;;;;15.88;5.43;;;;;;;10.97;69.41;102365.97;4959395;28;20488;-80
2023/12/27 09:13:12;;;;;;;10.32;5.88;;;;;;;10.96;69.58;102358.94;4980368;28;20560;-80
2023/12/27 09:15:39;;;;;;;13.60;6.28;;;;;;;10.85;69.65;102348.97;4975163;28;20077;-80
2023/12/27 09:18:06;;;;;;;11.85;5.85;;;;;;;11.01;69.58;102373.66;4955040;28;20061;-80
2023/12/27 09:20:33;;;;;;;9.80;5.97;;;;;;;11.03;69.22;102378.88;4959891;28;20057;-79
2023/12/27 09:23:00;;;;;;;16.17;6.78;;;;;;;10.72;69.48;102332.09;4986402;28;20421;-81
2023/12/27 09:25:27;;;;;;;13.82;7.22;;;;;;;10.80;69.57;102346.63;4972697;28;20451;-77
2023/12/27 09:27:57;;;;;;;10.27;6.68;;;;;;;11.08;69.59;102380.28;4973524;28;20123;-80
2023/12/27 09:30:25;;;;;;;12.55;7.18;;;;;;;10.85;69.33;102344.53;4973068;28;20063;-79
2023/12/27 09:32:55;;;;;;;12.35;6.40;;;;;;;10.99;69.50;102374.69;4979436;28;20366;-80
2023/12/27 09:35:22;;;;;;;11.52;8.10;;;;;;;10.86;69.04;102354.19;4991971;28;20057;-80
2023/12/27 09:37:49;;;;;;;11.43;7.82;;;;;;;10.90;69.09;102358.38;4978854;28;20045;-79
2023/12/27 09:40:16;;;;;;;14.00;8.07;;;;;;;11.02;69.70;102377.16;4978764;28;20509;-80
2023/12/27 09:42:44;;;;;;;12.63;7.15;;;;;;;11.07;70.35;102391.03;4978222;28;20405;-80
2023/12/27 09:45:17;;;;;;;11.63;8.63;;;;;;;11.08;69.32;102398.03;4971995;28;20297;-80
2023/12/27 09:47:47;;;;;;;16.20;10.07;;;;;;;11.10;69.47;102390.84;4953609;28;20072;-80
2023/12/27 09:50:14;;;;;;;13.75;8.18;;;;;;;11.11;70.04;102388.06;4974434;28;20057;-80
2023/12/27 09:52:47;;;;;;;14.25;8.82;;;;;;;11.13;69.55;102385.31;4977678;28;20053;-78
2023/12/27 09:55:14;;;;;;;14.82;9.45;;;;;;;10.97;70.02;102363.31;4978386;28;20064;-79
2023/12/27 09:57:41;;;;;;;16.30;9.40;;;;;;;11.19;70.24;102395.56;4967649;28;20057;-82
2023/12/27 10:00:16;;;;;;;16.25;10.20;;;;;;;11.00;69.75;102368.44;4991479;28;20134;-81
2023/12/27 10:02:49;;;;;;;16.75;10.45;;;;;;;11.15;70.31;102378.09;4973170;28;20073;-79
2023/12/27 10:05:23;;;;;;;14.20;9.18;;;;;;;11.23;70.27;102389.09;4978696;28;20505;-81
2023/12/27 10:07:51;;;;;;;19.55;11.07;;;;;;;10.81;70.28;102304.97;4994852;28;20048;-79
2023/12/27 10:10:18;;;;;;;14.90;10.82;;;;;;;11.30;70.08;102386.91;4978217;28;20492;-81
2023/12/27 10:13:02;;;;;;;15.70;11.60;;;;;;;11.27;70.19;102385.31;4994089;28;20559;-79
2023/12/27 10:15:30;;;;;;;17.17;10.65;;;;;;;11.06;70.51;102349.44;4969900;28;20159;-82
2023/12/27 10:18:00;;;;;;;14.10;11.02;;;;;;;11.22;70.44;102374.09;4977899;28;20167;-81
2023/12/27 10:20:41;;;;;;;17.00;10.88;;;;;;;10.80;70.00;102293.50;4969718;28;20041;-81
2023/12/27 10:23:12;;;;;;;20.83;11.10;;;;;;;11.32;70.05;102377.88;4978245;28;20092;-81
2023/12/27 10:25:40;;;;;;;17.35;11.30;;;;;;;11.21;70.41;102355.59;4978088;28;20081;-81
2023/12/27 10:28:07;;;;;;;16.38;10.98;;;;;;;11.27;70.53;102361.38;4988648;28;20049;-81
2023/12/27 10:30:34;;;;;;;13.50;10.20;;;;;;;11.34;70.74;102375.97;4971960;28;20386;-80
2023/12/27 10:33:02;;;;;;;17.23;11.73;;;;;;;11.27;70.20;102353.41;4977572;28;20042;-77
2023/12/27 10:35:31;;;;;;;15.95;10.25;;;;;;;11.30;69.93;102366.50;4970265;28;20061;-81
2023/12/27 10:38:05;;;;;;;16.27;9.60;;;;;;;11.43;69.47;102373.69;4971953;28;20202;-80
2023/12/27 10:40:34;;;;;;;14.63;9.60;;;;;;;11.36;70.15;102356.41;4980434;28;20047;-80
2023/12/27 10:43:03;;;;;;;14.77;10.90;;;;;;;11.46;70.08;102363.72;4978059;28;20053;-80
2023/12/27 10:45:31;;;;;;;15.52;10.05;;;;;;;11.36;70.14;102348.44;4999894;28;20049;-79
2023/12/27 10:48:00;;;;;;;17.75;9.18;;;;;;;11.33;69.74;102341.50;4983133;28;20104;-78
2023/12/27 10:50:30;;;;;;;15.95;9.10;;;;;;;11.49;69.39;102366.16;4995487;28;20503;-80
2023/12/27 10:53:07;;;;;;;17.88;10.27;;;;;;;11.48;69.61;102350.28;4977989;28;20355;-81
2023/12/27 10:55:36;;;;;;;14.02;9.00;;;;;;;11.47;70.61;102338.81;4983026;28;20601;-80
2023/12/27 10:58:09;;;;;;;14.73;9.55;;;;;;;11.24;69.19;102292.47;4977291;28;20477;-78
2023/12/27 11:00:36;;;;;;;11.93;8.85;;;;;;;11.47;69.27;102329.97;4982397;28;20042;-79
2023/12/27 11:03:04;;;;;;;14.32;10.20;;;;;;;11.64;69.19;102345.69;4978399;28;20493;-79
2023/12/27 11:05:32;;;;;;;11.57;8.88;;;;;;;11.65;68.94;102346.53;4982736;28;20104;-79
2023/12/27 11:08:00;;;;;;;15.18;9.60;;;;;;;11.65;68.42;102339.44;4992398;28;20559;-79
2023/12/27 11:10:30;;;;;;;15.45;8.38;;;;;;;11.67;69.21;102332.16;4976311;28;20493;-79
2023/12/27 11:12:58;;;;;;;15.85;10.13;;;;;;;11.71;69.36;102330.19;4986809;28;20053;-79
2023/12/27 11:15:29;;;;;;;12.40;8.90;;;;;;;11.62;69.13;102313.00;4978758;28;20141;-81
2023/12/27 11:18:00;;;;;;;13.73;9.40;;;;;;;11.60;68.49;102309.59;4983176;28;20057;-80
2023/12/27 11:20:31;;;;;;;14.35;9.90;;;;;;;11.54;68.62;102291.38;4976333;28;20052;-80
2023/12/27 11:22:58;;;;;;;19.05;10.73;;;;;;;11.73;68.63;102315.81;4985068;28;20092;-80